sensor_id;sensor_type;location;lat;lon;timestamp;temperature;humidity
752;DHT22;360;48.764;9.164;2023-05-07T00:00:11;14.10;99.90
752;DHT22;360;48.764;9.164;2023-05-07T00:02:40;13.90;33.30
752;DHT22;360;48.764;9.164;2023-05-07T00:05:08;13.60;99.90
752;DHT22;360;48.764;9.164;2023-05-07T00:07:36;13.50;99.90
752;DHT22;360;48.764;9.164;2023-05-07T00:10:04;13.80;99.90
752;DHT22;360;48.764;9.164;2023-05-07T00:12:32;14.00;99.50
752;DHT22;360;48.764;9.164;2023-05-07T00:15:00;13.90;1.00
752;DHT22;360;48.764;9.164;2023-05-07T00:17:26;13.70;99.90
752;DHT22;360;48.764;9.164;2023-05-07T00:19:53;13.60;99.90
752;DHT22;360;48.764;9.164;2023-05-07T00:22:20;13.50;99.90
752;DHT22;360;48.764;9.164;2023-05-07T00:24:49;13.70;99.90
752;DHT22;360;48.764;9.164;2023-05-07T00:27:16;13.50;99.90
752;DHT22;360;48.764;9.164;2023-05-07T00:29:42;13.40;99.90
752;DHT22;360;48.764;9.164;2023-05-07T00:32:09;13.30;99.90
752;DHT22;360;48.764;9.164;2023-05-07T00:34:36;13.30;99.90
752;DHT22;360;48.764;9.164;2023-05-07T00:37:05;13.30;99.90
752;DHT22;360;48.764;9.164;2023-05-07T00:39:32;13.20;99.90
752;DHT22;360;48.764;9.164;2023-05-07T00:42:01;13.10;99.90
752;DHT22;360;48.764;9.164;2023-05-07T00:44:28;13.20;99.90
752;DHT22;360;48.764;9.164;2023-05-07T00:46:55;13.10;99.90
752;DHT22;360;48.764;9.164;2023-05-07T00:49:25;13.10;99.90
752;DHT22;360;48.764;9.164;2023-05-07T00:51:57;13.20;99.90
752;DHT22;360;48.764;9.164;2023-05-07T00:54:26;13.00;99.90
752;DHT22;360;48.764;9.164;2023-05-07T00:56:54;13.00;99.90
752;DHT22;360;48.764;9.164;2023-05-07T00:59:22;13.00;99.90
752;DHT22;360;48.764;9.164;2023-05-07T01:01:49;13.00;99.90
752;DHT22;360;48.764;9.164;2023-05-07T01:04:17;13.10;99.90
752;DHT22;360;48.764;9.164;2023-05-07T01:06:44;13.00;99.90
752;DHT22;360;48.764;9.164;2023-05-07T01:09:12;13.00;99.90
752;DHT22;360;48.764;9.164;2023-05-07T01:11:39;13.00;99.90
752;DHT22;360;48.764;9.164;2023-05-07T01:14:07;13.20;99.90
752;DHT22;360;48.764;9.164;2023-05-07T01:16:36;13.20;99.90
752;DHT22;360;48.764;9.164;2023-05-07T01:19:04;13.30;99.90
752;DHT22;360;48.764;9.164;2023-05-07T01:21:33;13.10;99.90
752;DHT22;360;48.764;9.164;2023-05-07T01:24:02;13.00;99.90
752;DHT22;360;48.764;9.164;2023-05-07T01:26:29;12.90;99.90
752;DHT22;360;48.764;9.164;2023-05-07T01:28:56;12.80;99.90
752;DHT22;360;48.764;9.164;2023-05-07T01:31:24;12.90;99.90
752;DHT22;360;48.764;9.164;2023-05-07T01:33:52;13.20;99.90
752;DHT22;360;48.764;9.164;2023-05-07T01:36:20;13.20;99.90
752;DHT22;360;48.764;9.164;2023-05-07T01:38:49;13.10;99.90
752;DHT22;360;48.764;9.164;2023-05-07T01:41:19;12.80;99.90
752;DHT22;360;48.764;9.164;2023-05-07T01:43:47;12.80;99.90
752;DHT22;360;48.764;9.164;2023-05-07T01:46:14;12.80;99.90
752;DHT22;360;48.764;9.164;2023-05-07T01:48:42;12.70;99.90
752;DHT22;360;48.764;9.164;2023-05-07T01:51:11;12.90;99.90
752;DHT22;360;48.764;9.164;2023-05-07T01:53:39;12.80;99.90
752;DHT22;360;48.764;9.164;2023-05-07T01:56:06;12.70;99.90
752;DHT22;360;48.764;9.164;2023-05-07T01:58:34;12.70;99.90
752;DHT22;360;48.764;9.164;2023-05-07T02:01:01;12.70;99.90
752;DHT22;360;48.764;9.164;2023-05-07T02:03:28;12.80;99.90
752;DHT22;360;48.764;9.164;2023-05-07T02:05:56;12.70;99.90
752;DHT22;360;48.764;9.164;2023-05-07T02:08:22;12.70;99.90
752;DHT22;360;48.764;9.164;2023-05-07T02:10:49;12.60;99.90
752;DHT22;360;48.764;9.164;2023-05-07T02:13:17;12.80;99.90
752;DHT22;360;48.764;9.164;2023-05-07T02:15:45;12.90;99.90
752;DHT22;360;48.764;9.164;2023-05-07T02:18:16;12.80;99.90
752;DHT22;360;48.764;9.164;2023-05-07T02:20:43;13.00;99.90
752;DHT22;360;48.764;9.164;2023-05-07T02:23:09;13.20;99.90
752;DHT22;360;48.764;9.164;2023-05-07T02:25:36;13.30;99.90
752;DHT22;360;48.764;9.164;2023-05-07T02:28:03;13.00;99.90
752;DHT22;360;48.764;9.164;2023-05-07T02:30:30;13.10;99.90
752;DHT22;360;48.764;9.164;2023-05-07T02:32:58;13.00;99.90
752;DHT22;360;48.764;9.164;2023-05-07T02:35:25;12.80;99.90
752;DHT22;360;48.764;9.164;2023-05-07T02:37:52;12.70;99.90
752;DHT22;360;48.764;9.164;2023-05-07T02:40:19;12.90;99.90
752;DHT22;360;48.764;9.164;2023-05-07T02:42:46;12.80;99.90
752;DHT22;360;48.764;9.164;2023-05-07T02:45:12;12.60;99.90
752;DHT22;360;48.764;9.164;2023-05-07T02:47:40;12.70;99.90
752;DHT22;360;48.764;9.164;2023-05-07T02:50:08;12.50;99.90
752;DHT22;360;48.764;9.164;2023-05-07T02:52:35;12.50;99.90
752;DHT22;360;48.764;9.164;2023-05-07T02:55:02;12.70;99.90
752;DHT22;360;48.764;9.164;2023-05-07T02:57:29;12.60;99.90
752;DHT22;360;48.764;9.164;2023-05-07T02:59:57;12.40;99.90
752;DHT22;360;48.764;9.164;2023-05-07T03:02:24;12.30;99.90
752;DHT22;360;48.764;9.164;2023-05-07T03:04:51;12.40;99.90
752;DHT22;360;48.764;9.164;2023-05-07T03:07:19;12.40;99.90
752;DHT22;360;48.764;9.164;2023-05-07T03:09:46;12.40;99.90
752;DHT22;360;48.764;9.164;2023-05-07T03:12:12;12.40;99.90
752;DHT22;360;48.764;9.164;2023-05-07T03:14:39;12.30;99.90
752;DHT22;360;48.764;9.164;2023-05-07T03:17:06;12.10;99.90
752;DHT22;360;48.764;9.164;2023-05-07T03:19:33;12.10;99.90
752;DHT22;360;48.764;9.164;2023-05-07T03:22:00;12.00;99.90
752;DHT22;360;48.764;9.164;2023-05-07T03:24:28;11.90;99.90
752;DHT22;360;48.764;9.164;2023-05-07T03:26:54;11.90;99.90
752;DHT22;360;48.764;9.164;2023-05-07T03:29:23;11.90;99.90
752;DHT22;360;48.764;9.164;2023-05-07T03:31:50;11.90;99.90
752;DHT22;360;48.764;9.164;2023-05-07T03:34:17;12.00;99.90
752;DHT22;360;48.764;9.164;2023-05-07T03:36:47;12.40;99.90
752;DHT22;360;48.764;9.164;2023-05-07T03:39:14;12.30;99.90
752;DHT22;360;48.764;9.164;2023-05-07T03:41:42;12.30;99.90
752;DHT22;360;48.764;9.164;2023-05-07T03:44:09;12.10;99.90
752;DHT22;360;48.764;9.164;2023-05-07T03:46:36;12.00;99.90
752;DHT22;360;48.764;9.164;2023-05-07T03:49:03;12.00;99.90
752;DHT22;360;48.764;9.164;2023-05-07T03:51:30;12.00;99.90
752;DHT22;360;48.764;9.164;2023-05-07T03:53:57;12.10;99.90
752;DHT22;360;48.764;9.164;2023-05-07T03:56:23;11.90;99.90
752;DHT22;360;48.764;9.164;2023-05-07T03:58:53;12.00;99.90
752;DHT22;360;48.764;9.164;2023-05-07T04:01:20;11.90;99.90
752;DHT22;360;48.764;9.164;2023-05-07T04:03:47;11.90;99.90
752;DHT22;360;48.764;9.164;2023-05-07T04:06:15;11.90;99.90
752;DHT22;360;48.764;9.164;2023-05-07T04:08:42;11.80;99.90
752;DHT22;360;48.764;9.164;2023-05-07T04:11:09;11.70;99.90
752;DHT22;360;48.764;9.164;2023-05-07T06:36:11;11.60;99.90
752;DHT22;360;48.764;9.164;2023-05-07T06:38:38;15.80;99.90
752;DHT22;360;48.764;9.164;2023-05-07T06:41:06;15.90;1.00
752;DHT22;360;48.764;9.164;2023-05-07T06:43:33;15.80;1.00
752;DHT22;360;48.764;9.164;2023-05-07T06:45:59;15.90;1.00
752;DHT22;360;48.764;9.164;2023-05-07T06:48:26;15.80;1.00
752;DHT22;360;48.764;9.164;2023-05-07T06:50:54;15.70;1.00
752;DHT22;360;48.764;9.164;2023-05-07T06:53:23;15.80;1.70
752;DHT22;360;48.764;9.164;2023-05-07T06:55:49;15.90;1.00
752;DHT22;360;48.764;9.164;2023-05-07T06:58:17;16.00;99.90
752;DHT22;360;48.764;9.164;2023-05-07T07:00:44;16.10;99.90
752;DHT22;360;48.764;9.164;2023-05-07T07:03:11;16.20;99.90
752;DHT22;360;48.764;9.164;2023-05-07T07:05:38;16.30;99.90
752;DHT22;360;48.764;9.164;2023-05-07T07:08:06;16.40;99.90
752;DHT22;360;48.764;9.164;2023-05-07T07:10:33;16.50;99.90
752;DHT22;360;48.764;9.164;2023-05-07T07:13:00;16.60;75.00
752;DHT22;360;48.764;9.164;2023-05-07T07:15:27;16.80;16.80
752;DHT22;360;48.764;9.164;2023-05-07T07:17:53;16.90;1.00
752;DHT22;360;48.764;9.164;2023-05-07T07:20:20;16.90;1.00
752;DHT22;360;48.764;9.164;2023-05-07T07:22:47;17.10;1.00
752;DHT22;360;48.764;9.164;2023-05-07T10:38:08;17.30;1.00
752;DHT22;360;48.764;9.164;2023-05-07T10:40:36;24.80;29.20
752;DHT22;360;48.764;9.164;2023-05-07T10:43:04;24.70;26.60
752;DHT22;360;48.764;9.164;2023-05-07T10:45:31;24.80;24.60
752;DHT22;360;48.764;9.164;2023-05-07T10:48:09;24.80;24.20
752;DHT22;360;48.764;9.164;2023-05-07T10:50:38;24.90;21.80
752;DHT22;360;48.764;9.164;2023-05-07T10:53:25;25.00;18.60
752;DHT22;360;48.764;9.164;2023-05-07T10:58:56;25.50;14.30
752;DHT22;360;48.764;9.164;2023-05-07T11:01:50;25.50;11.40
752;DHT22;360;48.764;9.164;2023-05-07T11:04:17;25.40;9.00
752;DHT22;360;48.764;9.164;2023-05-07T11:07:25;25.70;8.70
752;DHT22;360;48.764;9.164;2023-05-07T11:10:03;25.50;8.90
752;DHT22;360;48.764;9.164;2023-05-07T11:13:03;25.10;5.80
752;DHT22;360;48.764;9.164;2023-05-07T11:15:38;24.90;3.40
752;DHT22;360;48.764;9.164;2023-05-07T11:18:07;24.80;4.90
752;DHT22;360;48.764;9.164;2023-05-07T11:20:49;24.40;7.10
752;DHT22;360;48.764;9.164;2023-05-07T11:23:58;24.20;10.10
752;DHT22;360;48.764;9.164;2023-05-07T11:26:26;24.00;11.20
752;DHT22;360;48.764;9.164;2023-05-07T11:28:53;23.90;10.30
752;DHT22;360;48.764;9.164;2023-05-07T11:31:23;23.80;8.90
752;DHT22;360;48.764;9.164;2023-05-07T11:33:51;23.80;7.30
752;DHT22;360;48.764;9.164;2023-05-07T11:36:18;23.70;6.60
752;DHT22;360;48.764;9.164;2023-05-07T11:38:46;23.60;6.70
752;DHT22;360;48.764;9.164;2023-05-07T11:41:16;23.60;5.60
752;DHT22;360;48.764;9.164;2023-05-07T11:43:59;23.50;5.40
752;DHT22;360;48.764;9.164;2023-05-07T11:46:27;23.30;5.20
752;DHT22;360;48.764;9.164;2023-05-07T11:48:55;23.30;4.60
752;DHT22;360;48.764;9.164;2023-05-07T11:51:23;23.20;1.00
752;DHT22;360;48.764;9.164;2023-05-07T11:53:52;23.30;1.60
752;DHT22;360;48.764;9.164;2023-05-07T11:56:20;23.20;2.60
752;DHT22;360;48.764;9.164;2023-05-07T11:58:47;23.00;10.40
752;DHT22;360;48.764;9.164;2023-05-07T12:01:15;23.00;13.20
752;DHT22;360;48.764;9.164;2023-05-07T12:03:45;22.80;17.00
752;DHT22;360;48.764;9.164;2023-05-07T12:16:06;22.60;21.50
752;DHT22;360;48.764;9.164;2023-05-07T12:18:35;20.30;99.90
752;DHT22;360;48.764;9.164;2023-05-07T12:40:50;20.10;99.90
752;DHT22;360;48.764;9.164;2023-05-07T12:43:18;16.30;99.90
752;DHT22;360;48.764;9.164;2023-05-07T12:45:46;15.70;99.90
752;DHT22;360;48.764;9.164;2023-05-07T12:48:15;14.50;99.90
752;DHT22;360;48.764;9.164;2023-05-07T12:50:42;14.40;99.90
752;DHT22;360;48.764;9.164;2023-05-07T12:55:43;14.80;99.90
752;DHT22;360;48.764;9.164;2023-05-07T12:58:18;15.30;99.90
752;DHT22;360;48.764;9.164;2023-05-07T13:00:47;15.30;99.90
752;DHT22;360;48.764;9.164;2023-05-07T13:03:21;14.90;99.90
752;DHT22;360;48.764;9.164;2023-05-07T13:05:49;14.60;99.90
752;DHT22;360;48.764;9.164;2023-05-07T13:08:24;14.20;99.90
752;DHT22;360;48.764;9.164;2023-05-07T13:10:51;14.20;99.90
752;DHT22;360;48.764;9.164;2023-05-07T13:13:19;14.70;99.90
752;DHT22;360;48.764;9.164;2023-05-07T13:15:46;14.60;99.90
752;DHT22;360;48.764;9.164;2023-05-07T13:18:12;14.60;99.90
752;DHT22;360;48.764;9.164;2023-05-07T13:20:41;14.80;99.90
752;DHT22;360;48.764;9.164;2023-05-07T13:23:07;14.90;99.90
752;DHT22;360;48.764;9.164;2023-05-07T13:25:35;14.90;99.90
752;DHT22;360;48.764;9.164;2023-05-07T13:28:01;14.90;99.90
752;DHT22;360;48.764;9.164;2023-05-07T13:30:30;14.80;99.90
752;DHT22;360;48.764;9.164;2023-05-07T13:32:56;14.70;99.90
752;DHT22;360;48.764;9.164;2023-05-07T13:35:23;14.80;99.90
752;DHT22;360;48.764;9.164;2023-05-07T13:37:51;15.00;99.90
752;DHT22;360;48.764;9.164;2023-05-07T13:40:20;15.30;99.90
752;DHT22;360;48.764;9.164;2023-05-07T13:42:47;15.40;99.90
752;DHT22;360;48.764;9.164;2023-05-07T13:45:14;15.40;99.90
752;DHT22;360;48.764;9.164;2023-05-07T13:47:41;15.50;99.90
752;DHT22;360;48.764;9.164;2023-05-07T13:50:09;15.60;99.90
752;DHT22;360;48.764;9.164;2023-05-07T13:52:36;15.70;99.90
752;DHT22;360;48.764;9.164;2023-05-07T13:57:34;15.80;99.90
752;DHT22;360;48.764;9.164;2023-05-07T14:00:01;15.90;99.90
752;DHT22;360;48.764;9.164;2023-05-07T14:02:30;15.60;99.90
752;DHT22;360;48.764;9.164;2023-05-07T14:04:57;15.30;99.90
752;DHT22;360;48.764;9.164;2023-05-07T14:07:24;15.60;99.90
752;DHT22;360;48.764;9.164;2023-05-07T14:09:50;15.50;99.90
752;DHT22;360;48.764;9.164;2023-05-07T14:12:19;15.50;99.90
752;DHT22;360;48.764;9.164;2023-05-07T14:14:45;15.60;99.90
752;DHT22;360;48.764;9.164;2023-05-07T14:17:15;15.50;99.90
752;DHT22;360;48.764;9.164;2023-05-07T14:19:42;15.50;99.90
752;DHT22;360;48.764;9.164;2023-05-07T14:22:09;15.40;99.90
752;DHT22;360;48.764;9.164;2023-05-07T14:24:36;15.20;99.90
752;DHT22;360;48.764;9.164;2023-05-07T14:27:04;15.30;99.90
752;DHT22;360;48.764;9.164;2023-05-07T14:29:32;15.30;99.90
752;DHT22;360;48.764;9.164;2023-05-07T14:32:01;15.40;99.90
752;DHT22;360;48.764;9.164;2023-05-07T14:34:28;15.40;99.90
752;DHT22;360;48.764;9.164;2023-05-07T14:36:55;15.20;99.90
752;DHT22;360;48.764;9.164;2023-05-07T14:39:22;15.10;99.90
752;DHT22;360;48.764;9.164;2023-05-07T14:41:49;15.20;99.90
752;DHT22;360;48.764;9.164;2023-05-07T14:44:15;15.30;99.90
752;DHT22;360;48.764;9.164;2023-05-07T14:46:45;15.30;99.90
752;DHT22;360;48.764;9.164;2023-05-07T14:49:14;15.40;99.90
752;DHT22;360;48.764;9.164;2023-05-07T14:51:43;15.40;99.90
752;DHT22;360;48.764;9.164;2023-05-07T14:54:10;15.40;99.90
752;DHT22;360;48.764;9.164;2023-05-07T14:56:37;15.40;99.90
752;DHT22;360;48.764;9.164;2023-05-07T14:59:04;15.40;99.90
752;DHT22;360;48.764;9.164;2023-05-07T15:01:31;15.40;99.90
752;DHT22;360;48.764;9.164;2023-05-07T15:04:00;15.50;99.90
752;DHT22;360;48.764;9.164;2023-05-07T15:06:26;15.70;99.90
752;DHT22;360;48.764;9.164;2023-05-07T15:08:53;15.60;99.90
752;DHT22;360;48.764;9.164;2023-05-07T15:11:20;15.60;99.90
752;DHT22;360;48.764;9.164;2023-05-07T15:13:47;15.50;99.90
752;DHT22;360;48.764;9.164;2023-05-07T15:16:14;15.60;99.90
752;DHT22;360;48.764;9.164;2023-05-07T15:18:40;15.80;99.90
752;DHT22;360;48.764;9.164;2023-05-07T15:21:09;15.80;99.90
752;DHT22;360;48.764;9.164;2023-05-07T15:23:36;15.90;99.90
752;DHT22;360;48.764;9.164;2023-05-07T15:26:04;16.10;99.90
752;DHT22;360;48.764;9.164;2023-05-07T15:28:33;16.20;99.90
752;DHT22;360;48.764;9.164;2023-05-07T15:30:59;16.40;99.90
752;DHT22;360;48.764;9.164;2023-05-07T15:33:26;16.40;99.90
752;DHT22;360;48.764;9.164;2023-05-07T15:35:53;16.50;99.90
752;DHT22;360;48.764;9.164;2023-05-07T15:38:25;16.50;99.90
752;DHT22;360;48.764;9.164;2023-05-07T15:40:52;16.60;99.90
752;DHT22;360;48.764;9.164;2023-05-07T15:43:20;16.60;99.90
752;DHT22;360;48.764;9.164;2023-05-07T15:45:47;16.70;99.90
752;DHT22;360;48.764;9.164;2023-05-07T15:48:14;16.70;99.90
752;DHT22;360;48.764;9.164;2023-05-07T15:50:41;16.80;99.90
752;DHT22;360;48.764;9.164;2023-05-07T15:53:07;16.80;99.90
752;DHT22;360;48.764;9.164;2023-05-07T15:55:36;16.80;99.90
752;DHT22;360;48.764;9.164;2023-05-07T15:58:03;16.80;99.90
752;DHT22;360;48.764;9.164;2023-05-07T16:00:31;16.90;99.90
752;DHT22;360;48.764;9.164;2023-05-07T16:03:00;16.80;99.90
752;DHT22;360;48.764;9.164;2023-05-07T16:05:27;16.80;99.90
752;DHT22;360;48.764;9.164;2023-05-07T16:07:54;16.80;99.90
752;DHT22;360;48.764;9.164;2023-05-07T16:10:22;16.80;99.90
752;DHT22;360;48.764;9.164;2023-05-07T16:12:50;16.80;99.90
752;DHT22;360;48.764;9.164;2023-05-07T16:15:17;16.90;99.90
752;DHT22;360;48.764;9.164;2023-05-07T16:17:45;16.90;99.90
752;DHT22;360;48.764;9.164;2023-05-07T16:20:13;17.00;99.90
752;DHT22;360;48.764;9.164;2023-05-07T16:22:40;16.90;99.90
752;DHT22;360;48.764;9.164;2023-05-07T16:25:08;16.90;99.90
752;DHT22;360;48.764;9.164;2023-05-07T16:27:35;17.00;99.90
752;DHT22;360;48.764;9.164;2023-05-07T16:30:04;16.90;99.90
752;DHT22;360;48.764;9.164;2023-05-07T16:32:31;16.90;99.90
752;DHT22;360;48.764;9.164;2023-05-07T16:34:59;17.00;99.90
752;DHT22;360;48.764;9.164;2023-05-07T16:37:26;16.90;99.90
752;DHT22;360;48.764;9.164;2023-05-07T16:39:52;17.00;99.90
752;DHT22;360;48.764;9.164;2023-05-07T16:42:21;17.00;99.90
752;DHT22;360;48.764;9.164;2023-05-07T16:44:47;17.00;99.90
752;DHT22;360;48.764;9.164;2023-05-07T16:47:16;17.10;99.90
752;DHT22;360;48.764;9.164;2023-05-07T16:49:42;17.10;99.90
752;DHT22;360;48.764;9.164;2023-05-07T16:52:09;17.10;99.90
752;DHT22;360;48.764;9.164;2023-05-07T16:54:36;17.20;99.90
752;DHT22;360;48.764;9.164;2023-05-07T16:57:03;17.20;99.90
752;DHT22;360;48.764;9.164;2023-05-07T16:59:30;17.20;99.90
752;DHT22;360;48.764;9.164;2023-05-07T17:01:57;17.20;99.90
752;DHT22;360;48.764;9.164;2023-05-07T17:04:26;17.30;99.90
752;DHT22;360;48.764;9.164;2023-05-07T17:06:54;17.30;99.90
752;DHT22;360;48.764;9.164;2023-05-07T17:09:22;17.30;99.90
752;DHT22;360;48.764;9.164;2023-05-07T17:11:49;17.40;99.90
752;DHT22;360;48.764;9.164;2023-05-07T17:14:16;17.40;99.90
752;DHT22;360;48.764;9.164;2023-05-07T17:16:42;17.30;99.90
752;DHT22;360;48.764;9.164;2023-05-07T17:19:09;17.40;99.90
752;DHT22;360;48.764;9.164;2023-05-07T17:21:37;17.40;99.90
752;DHT22;360;48.764;9.164;2023-05-07T17:24:05;17.40;99.90
752;DHT22;360;48.764;9.164;2023-05-07T17:26:32;17.30;99.90
752;DHT22;360;48.764;9.164;2023-05-07T17:29:00;17.40;99.90
752;DHT22;360;48.764;9.164;2023-05-07T17:31:28;17.30;99.90
752;DHT22;360;48.764;9.164;2023-05-07T17:33:54;17.30;99.90
752;DHT22;360;48.764;9.164;2023-05-07T17:36:22;17.20;99.90
752;DHT22;360;48.764;9.164;2023-05-07T17:38:50;17.10;99.90
752;DHT22;360;48.764;9.164;2023-05-07T17:41:17;17.20;99.90
752;DHT22;360;48.764;9.164;2023-05-07T17:43:45;17.10;99.90
752;DHT22;360;48.764;9.164;2023-05-07T17:46:12;17.10;99.90
752;DHT22;360;48.764;9.164;2023-05-07T17:48:38;16.90;99.90
752;DHT22;360;48.764;9.164;2023-05-07T17:51:05;16.90;99.90
752;DHT22;360;48.764;9.164;2023-05-07T17:53:32;16.90;99.90
752;DHT22;360;48.764;9.164;2023-05-07T17:56:00;16.90;99.90
752;DHT22;360;48.764;9.164;2023-05-07T17:58:27;17.00;99.90
752;DHT22;360;48.764;9.164;2023-05-07T18:00:54;16.90;99.90
752;DHT22;360;48.764;9.164;2023-05-07T18:03:21;16.80;99.90
752;DHT22;360;48.764;9.164;2023-05-07T18:05:48;16.80;99.90
752;DHT22;360;48.764;9.164;2023-05-07T18:08:15;16.80;99.90
752;DHT22;360;48.764;9.164;2023-05-07T18:10:42;16.80;99.90
752;DHT22;360;48.764;9.164;2023-05-07T18:13:10;16.80;99.90
752;DHT22;360;48.764;9.164;2023-05-07T18:15:37;16.80;99.90
752;DHT22;360;48.764;9.164;2023-05-07T18:18:04;16.80;99.90
752;DHT22;360;48.764;9.164;2023-05-07T18:20:31;16.70;99.90
752;DHT22;360;48.764;9.164;2023-05-07T18:22:58;16.60;99.90
752;DHT22;360;48.764;9.164;2023-05-07T18:25:25;16.70;99.90
752;DHT22;360;48.764;9.164;2023-05-07T18:27:52;16.70;99.90
752;DHT22;360;48.764;9.164;2023-05-07T18:30:20;16.70;99.90
752;DHT22;360;48.764;9.164;2023-05-07T18:32:47;16.70;99.90
752;DHT22;360;48.764;9.164;2023-05-07T18:35:15;16.70;99.90
752;DHT22;360;48.764;9.164;2023-05-07T18:37:42;16.70;99.90
752;DHT22;360;48.764;9.164;2023-05-07T18:40:09;16.70;99.90
752;DHT22;360;48.764;9.164;2023-05-07T18:42:36;16.70;99.90
752;DHT22;360;48.764;9.164;2023-05-07T18:45:04;16.70;99.90
752;DHT22;360;48.764;9.164;2023-05-07T18:47:32;16.70;99.90
752;DHT22;360;48.764;9.164;2023-05-07T18:49:59;16.60;99.90
752;DHT22;360;48.764;9.164;2023-05-07T18:52:26;16.60;99.90
752;DHT22;360;48.764;9.164;2023-05-07T18:54:53;16.50;99.90
752;DHT22;360;48.764;9.164;2023-05-07T18:57:20;16.50;99.90
752;DHT22;360;48.764;9.164;2023-05-07T18:59:47;16.50;99.90
752;DHT22;360;48.764;9.164;2023-05-07T19:02:14;16.50;99.90
752;DHT22;360;48.764;9.164;2023-05-07T19:04:42;16.40;99.90
752;DHT22;360;48.764;9.164;2023-05-07T19:07:09;16.40;99.90
752;DHT22;360;48.764;9.164;2023-05-07T19:09:36;16.40;99.90
752;DHT22;360;48.764;9.164;2023-05-07T19:12:03;16.40;99.90
752;DHT22;360;48.764;9.164;2023-05-07T19:14:31;16.30;99.90
752;DHT22;360;48.764;9.164;2023-05-07T19:16:58;16.30;99.90
752;DHT22;360;48.764;9.164;2023-05-07T19:19:25;16.30;99.90
752;DHT22;360;48.764;9.164;2023-05-07T19:21:53;16.20;99.90
752;DHT22;360;48.764;9.164;2023-05-07T19:24:20;16.20;99.90
752;DHT22;360;48.764;9.164;2023-05-07T19:26:47;16.20;99.90
752;DHT22;360;48.764;9.164;2023-05-07T19:29:14;16.20;99.90
752;DHT22;360;48.764;9.164;2023-05-07T19:31:41;16.20;99.90
752;DHT22;360;48.764;9.164;2023-05-07T19:34:07;16.20;99.90
752;DHT22;360;48.764;9.164;2023-05-07T19:36:34;16.20;99.90
752;DHT22;360;48.764;9.164;2023-05-07T19:39:04;16.10;99.90
752;DHT22;360;48.764;9.164;2023-05-07T19:41:31;16.00;99.90
752;DHT22;360;48.764;9.164;2023-05-07T19:43:58;15.90;99.90
752;DHT22;360;48.764;9.164;2023-05-07T19:46:24;15.90;99.90
752;DHT22;360;48.764;9.164;2023-05-07T19:48:51;15.90;99.90
752;DHT22;360;48.764;9.164;2023-05-07T19:51:18;15.80;99.90
752;DHT22;360;48.764;9.164;2023-05-07T19:53:45;15.60;99.90
752;DHT22;360;48.764;9.164;2023-05-07T19:56:13;15.70;99.90
752;DHT22;360;48.764;9.164;2023-05-07T19:58:40;15.70;99.90
752;DHT22;360;48.764;9.164;2023-05-07T20:01:07;15.80;99.90
752;DHT22;360;48.764;9.164;2023-05-07T20:03:34;15.70;99.90
752;DHT22;360;48.764;9.164;2023-05-07T20:06:02;15.70;99.90
752;DHT22;360;48.764;9.164;2023-05-07T20:08:28;15.80;99.90
752;DHT22;360;48.764;9.164;2023-05-07T20:10:57;15.70;99.90
752;DHT22;360;48.764;9.164;2023-05-07T20:13:25;15.70;99.90
752;DHT22;360;48.764;9.164;2023-05-07T20:15:56;15.70;99.90
752;DHT22;360;48.764;9.164;2023-05-07T20:18:23;15.60;99.90
752;DHT22;360;48.764;9.164;2023-05-07T20:20:51;15.50;99.90
752;DHT22;360;48.764;9.164;2023-05-07T20:23:18;15.50;99.90
752;DHT22;360;48.764;9.164;2023-05-07T20:25:45;15.60;99.90
752;DHT22;360;48.764;9.164;2023-05-07T20:28:12;15.50;99.90
752;DHT22;360;48.764;9.164;2023-05-07T20:30:40;15.40;99.90
752;DHT22;360;48.764;9.164;2023-05-07T20:33:07;15.40;99.90
752;DHT22;360;48.764;9.164;2023-05-07T20:35:34;15.40;99.90
752;DHT22;360;48.764;9.164;2023-05-07T20:38:01;15.40;99.90
752;DHT22;360;48.764;9.164;2023-05-07T20:40:28;15.40;99.90
752;DHT22;360;48.764;9.164;2023-05-07T20:42:58;15.40;99.90
752;DHT22;360;48.764;9.164;2023-05-07T20:45:24;15.50;99.90
752;DHT22;360;48.764;9.164;2023-05-07T20:47:53;15.40;99.90
752;DHT22;360;48.764;9.164;2023-05-07T20:50:21;15.50;99.90
752;DHT22;360;48.764;9.164;2023-05-07T20:52:48;15.50;99.90
752;DHT22;360;48.764;9.164;2023-05-07T20:55:17;15.70;99.90
752;DHT22;360;48.764;9.164;2023-05-07T20:57:44;15.70;99.90
752;DHT22;360;48.764;9.164;2023-05-07T21:00:11;15.70;99.90
752;DHT22;360;48.764;9.164;2023-05-07T21:02:40;15.80;99.90
752;DHT22;360;48.764;9.164;2023-05-07T21:05:08;15.80;99.90
752;DHT22;360;48.764;9.164;2023-05-07T21:07:35;15.90;99.90
752;DHT22;360;48.764;9.164;2023-05-07T21:10:02;15.90;99.90
752;DHT22;360;48.764;9.164;2023-05-07T21:12:29;15.90;99.90
752;DHT22;360;48.764;9.164;2023-05-07T21:14:56;15.80;99.90
752;DHT22;360;48.764;9.164;2023-05-07T21:17:23;15.80;99.90
752;DHT22;360;48.764;9.164;2023-05-07T21:19:50;15.80;99.90
752;DHT22;360;48.764;9.164;2023-05-07T21:22:18;15.90;99.90
752;DHT22;360;48.764;9.164;2023-05-07T21:24:45;15.90;99.90
752;DHT22;360;48.764;9.164;2023-05-07T21:27:12;15.90;99.90
752;DHT22;360;48.764;9.164;2023-05-07T21:29:38;15.80;99.90
752;DHT22;360;48.764;9.164;2023-05-07T21:32:05;15.80;99.90
752;DHT22;360;48.764;9.164;2023-05-07T21:34:32;15.80;99.90
752;DHT22;360;48.764;9.164;2023-05-07T21:36:59;15.80;99.90
752;DHT22;360;48.764;9.164;2023-05-07T21:39:27;15.80;99.90
752;DHT22;360;48.764;9.164;2023-05-07T21:41:54;15.80;99.90
752;DHT22;360;48.764;9.164;2023-05-07T21:44:22;15.80;99.90
752;DHT22;360;48.764;9.164;2023-05-07T21:46:48;15.70;99.90
752;DHT22;360;48.764;9.164;2023-05-07T21:49:16;15.80;99.90
752;DHT22;360;48.764;9.164;2023-05-07T21:51:43;15.70;99.90
752;DHT22;360;48.764;9.164;2023-05-07T21:54:10;15.70;99.90
752;DHT22;360;48.764;9.164;2023-05-07T21:56:38;15.50;99.90
752;DHT22;360;48.764;9.164;2023-05-07T21:59:05;15.60;99.90
752;DHT22;360;48.764;9.164;2023-05-07T22:01:32;15.60;99.90
752;DHT22;360;48.764;9.164;2023-05-07T22:03:59;15.60;99.90
752;DHT22;360;48.764;9.164;2023-05-07T22:06:26;15.70;99.90
752;DHT22;360;48.764;9.164;2023-05-07T22:08:54;15.60;99.90
752;DHT22;360;48.764;9.164;2023-05-07T22:11:20;15.60;99.90
752;DHT22;360;48.764;9.164;2023-05-07T22:13:49;15.60;99.90
752;DHT22;360;48.764;9.164;2023-05-07T22:16:15;15.60;99.90
752;DHT22;360;48.764;9.164;2023-05-07T22:18:42;15.70;99.90
752;DHT22;360;48.764;9.164;2023-05-07T22:21:09;15.60;99.90
752;DHT22;360;48.764;9.164;2023-05-07T22:23:36;15.50;99.90
752;DHT22;360;48.764;9.164;2023-05-07T22:26:09;15.50;99.90
752;DHT22;360;48.764;9.164;2023-05-07T22:28:36;15.50;99.90
752;DHT22;360;48.764;9.164;2023-05-07T22:31:04;15.60;99.90
752;DHT22;360;48.764;9.164;2023-05-07T22:33:31;15.50;99.90
752;DHT22;360;48.764;9.164;2023-05-07T22:35:58;15.40;99.90
752;DHT22;360;48.764;9.164;2023-05-07T22:38:25;15.30;99.90
752;DHT22;360;48.764;9.164;2023-05-07T22:40:52;15.30;99.90
752;DHT22;360;48.764;9.164;2023-05-07T22:43:18;15.50;99.90
752;DHT22;360;48.764;9.164;2023-05-07T22:45:45;15.50;99.90
752;DHT22;360;48.764;9.164;2023-05-07T22:48:13;15.50;99.90
752;DHT22;360;48.764;9.164;2023-05-07T22:50:40;15.50;99.90
752;DHT22;360;48.764;9.164;2023-05-07T22:53:07;15.50;99.90